createdAt,value
2023-05-23T00:02:49.797Z,15.10
2023-05-23T00:05:52.248Z,13.82
2023-05-23T00:08:54.796Z,15.75
2023-05-23T00:11:57.077Z,15.45
2023-05-23T00:14:59.772Z,15.60
2023-05-23T00:18:01.933Z,15.02
2023-05-23T00:21:04.168Z,15.38
2023-05-23T00:24:06.435Z,15.68
2023-05-23T00:27:08.777Z,15.82
2023-05-23T00:30:11.228Z,15.90
2023-05-23T00:33:14.630Z,15.68
2023-05-23T00:36:17.178Z,15.38
2023-05-23T00:39:20.495Z,14.85
2023-05-23T00:42:23.527Z,15.15
2023-05-23T00:45:25.606Z,16.42
2023-05-23T00:48:28.050Z,16.13
2023-05-23T00:51:30.201Z,16.38
2023-05-23T00:54:33.208Z,15.75
2023-05-23T00:57:39.729Z,16.45
2023-05-23T01:00:45.253Z,17.00
2023-05-23T01:03:48.579Z,16.65
2023-05-23T01:06:50.833Z,16.90
2023-05-23T01:09:53.071Z,16.88
2023-05-23T01:13:07.092Z,16.60
2023-05-23T01:16:18.365Z,16.52
2023-05-23T01:19:29.445Z,15.93
2023-05-23T01:22:53.960Z,15.43
2023-05-23T01:26:23.486Z,15.18
2023-05-23T01:29:32.246Z,16.90
2023-05-23T01:32:35.519Z,17.13
2023-05-23T01:35:38.509Z,16.55
2023-05-23T01:38:40.731Z,16.17
2023-05-23T01:41:43.044Z,16.60
2023-05-23T01:44:46.081Z,15.90
2023-05-23T01:47:51.629Z,16.23
2023-05-23T01:50:54.245Z,16.88
2023-05-23T01:53:57.930Z,15.90
2023-05-23T01:57:01.525Z,16.70
2023-05-23T02:00:06.656Z,17.38
2023-05-23T02:03:08.979Z,17.65
2023-05-23T02:06:11.327Z,18.23
2023-05-23T02:09:13.539Z,17.40
2023-05-23T02:12:15.703Z,18.13
2023-05-23T02:15:17.841Z,17.90
2023-05-23T02:18:21.253Z,18.05
2023-05-23T02:21:24.091Z,19.15
2023-05-23T02:24:26.385Z,19.35
2023-05-23T02:27:28.872Z,19.48
2023-05-23T02:30:31.004Z,18.05
2023-05-23T02:33:33.150Z,18.63
2023-05-23T02:36:37.259Z,18.90
2023-05-23T02:39:39.331Z,19.30
2023-05-23T02:42:41.497Z,18.33
2023-05-23T02:45:43.754Z,18.05
2023-05-23T02:48:45.985Z,17.85
2023-05-23T02:51:48.178Z,18.08
2023-05-23T02:54:50.428Z,18.60
2023-05-23T02:57:52.753Z,17.75
2023-05-23T03:00:54.854Z,17.33
2023-05-23T03:03:57.117Z,18.30
2023-05-23T03:06:59.720Z,18.85
2023-05-23T03:10:01.998Z,18.58
2023-05-23T03:13:04.656Z,17.67
2023-05-23T03:16:07.153Z,19.55
2023-05-23T03:19:09.355Z,19.58
2023-05-23T03:22:11.568Z,19.55
2023-05-23T03:25:16.501Z,20.77
2023-05-23T03:28:18.606Z,19.50
2023-05-23T03:31:21.014Z,18.92
2023-05-23T03:34:23.968Z,19.73
2023-05-23T03:37:26.300Z,20.63
2023-05-23T03:40:28.532Z,21.40
2023-05-23T03:43:30.657Z,22.70
2023-05-23T03:46:32.915Z,23.20
2023-05-23T03:49:35.563Z,23.17
2023-05-23T03:52:37.687Z,22.52
2023-05-23T03:55:40.161Z,22.15
2023-05-23T03:58:42.585Z,22.85
2023-05-23T04:01:44.830Z,21.95
2023-05-23T04:04:47.214Z,22.77
2023-05-23T04:07:51.735Z,22.48
2023-05-23T04:10:53.899Z,22.70
2023-05-23T04:13:56.074Z,23.35
2023-05-23T04:16:58.255Z,21.80
2023-05-23T04:20:01.087Z,21.13
2023-05-23T04:23:03.296Z,21.15
2023-05-23T04:26:08.010Z,21.50
2023-05-23T04:29:12.338Z,22.05
2023-05-23T04:32:16.950Z,22.25
2023-05-23T04:35:19.121Z,21.70
2023-05-23T04:38:22.196Z,20.40
2023-05-23T04:41:24.567Z,19.17
2023-05-23T04:44:30.347Z,17.85
2023-05-23T04:47:37.288Z,16.77
2023-05-23T04:50:40.731Z,15.15
2023-05-23T04:53:43.836Z,13.88
2023-05-23T04:56:46.297Z,13.88
2023-05-23T04:59:48.287Z,12.18
2023-05-23T05:02:50.479Z,11.95
2023-05-23T05:05:53.710Z,11.88
2023-05-23T05:08:55.741Z,10.98
2023-05-23T05:11:59.348Z,10.63
2023-05-23T05:15:02.776Z,10.88
2023-05-23T05:18:04.941Z,10.05
2023-05-23T05:21:08.270Z,9.93
2023-05-23T05:24:11.143Z,9.50
2023-05-23T05:27:13.236Z,9.70
2023-05-23T05:30:15.417Z,9.80
2023-05-23T05:33:18.552Z,8.98
2023-05-23T05:36:21.699Z,9.52
2023-05-23T05:39:25.028Z,9.95
2023-05-23T05:42:27.133Z,10.50
2023-05-23T05:45:29.265Z,9.95
2023-05-23T05:48:31.556Z,9.48
2023-05-23T05:51:33.599Z,8.95
2023-05-23T05:54:36.240Z,8.70
2023-05-23T05:57:39.978Z,8.65
2023-05-23T06:00:42.827Z,9.05
2023-05-23T06:03:45.420Z,9.02
2023-05-23T06:06:47.742Z,8.05
2023-05-23T06:09:49.837Z,8.13
2023-05-23T06:12:52.160Z,8.23
2023-05-23T06:15:54.617Z,7.78
2023-05-23T06:18:56.796Z,7.72
2023-05-23T06:21:59.007Z,7.93
2023-05-23T06:25:01.037Z,7.47
2023-05-23T06:28:03.290Z,7.65
2023-05-23T06:31:05.599Z,7.57
2023-05-23T06:34:07.751Z,7.97
2023-05-23T06:37:09.872Z,8.00
2023-05-23T06:40:14.587Z,8.65
2023-05-23T06:43:16.883Z,7.45
2023-05-23T06:46:19.235Z,8.15
2023-05-23T06:49:21.508Z,7.20
2023-05-23T06:52:23.625Z,7.93
2023-05-23T06:55:25.896Z,7.78
2023-05-23T06:58:28.012Z,7.30
2023-05-23T07:01:30.195Z,7.78
2023-05-23T07:04:32.353Z,6.25
2023-05-23T07:07:34.705Z,6.45
2023-05-23T07:10:36.905Z,7.00
2023-05-23T07:13:39.052Z,6.07
2023-05-23T07:16:41.198Z,6.07
2023-05-23T07:19:43.335Z,6.78
2023-05-23T07:22:45.686Z,6.53
2023-05-23T07:26:01.106Z,6.50
2023-05-23T07:29:04.423Z,6.68
2023-05-23T07:32:06.703Z,6.20
2023-05-23T07:35:08.871Z,6.38
2023-05-23T07:38:11.133Z,7.18
2023-05-23T07:41:13.210Z,6.90
2023-05-23T07:44:15.315Z,6.40
2023-05-23T07:47:17.621Z,6.50
2023-05-23T07:50:20.136Z,6.47
2023-05-23T07:53:22.738Z,6.00
2023-05-23T07:56:24.786Z,6.50
2023-05-23T07:59:27.051Z,6.80
2023-05-23T08:02:29.251Z,6.80
2023-05-23T08:05:31.421Z,6.97
2023-05-23T08:08:33.860Z,6.47
2023-05-23T08:11:36.035Z,7.18
2023-05-23T08:14:49.963Z,7.00
2023-05-23T08:17:57.118Z,7.22
2023-05-23T08:20:59.453Z,6.88
2023-05-23T08:24:01.572Z,7.00
2023-05-23T08:27:03.760Z,6.93
2023-05-23T08:30:07.052Z,7.18
2023-05-23T08:33:09.159Z,7.03
2023-05-23T08:36:11.430Z,7.53
2023-05-23T08:39:14.253Z,6.85
2023-05-23T08:42:16.539Z,7.47
2023-05-23T08:45:19.378Z,7.05
2023-05-23T08:48:21.771Z,6.90
2023-05-23T08:51:27.362Z,6.93
2023-05-23T08:54:30.728Z,7.30
2023-05-23T08:57:33.294Z,7.70
2023-05-23T09:00:35.778Z,6.72
2023-05-23T09:03:38.318Z,7.90
2023-05-23T09:06:40.636Z,6.78
2023-05-23T09:09:42.975Z,7.00
2023-05-23T09:12:45.099Z,6.38
2023-05-23T09:16:13.400Z,6.22
2023-05-23T09:19:15.954Z,6.43
2023-05-23T09:22:26.103Z,6.40
2023-05-23T09:25:28.252Z,6.20
2023-05-23T09:28:31.425Z,6.25
2023-05-23T09:31:33.785Z,6.43
2023-05-23T09:34:36.037Z,6.10
2023-05-23T09:37:41.030Z,6.65
2023-05-23T09:40:45.767Z,6.20
2023-05-23T09:43:55.188Z,6.50
2023-05-23T09:46:57.257Z,6.78
2023-05-23T09:49:59.456Z,6.70
2023-05-23T09:53:01.847Z,6.78
2023-05-23T09:56:04.768Z,6.50
2023-05-23T09:59:08.725Z,6.60
2023-05-23T10:02:16.910Z,6.60
2023-05-23T10:05:36.549Z,5.70
2023-05-23T10:08:45.704Z,5.70
2023-05-23T10:11:59.814Z,5.75
2023-05-23T10:15:07.577Z,5.68
2023-05-23T10:18:26.505Z,6.85
2023-05-23T10:21:33.451Z,6.05
2023-05-23T10:24:36.630Z,6.40
2023-05-23T10:27:39.977Z,6.00
2023-05-23T10:30:42.303Z,6.03
2023-05-23T10:33:53.092Z,5.93
2023-05-23T10:37:05.149Z,5.95
2023-05-23T10:40:27.601Z,5.80
2023-05-23T10:43:36.744Z,7.00
2023-05-23T10:46:51.681Z,6.20
2023-05-23T10:49:55.313Z,6.53
2023-05-23T10:52:57.503Z,6.97
2023-05-23T10:55:59.758Z,6.88
2023-05-23T10:59:01.873Z,6.30
2023-05-23T11:02:10.087Z,6.05
2023-05-23T11:05:23.298Z,6.30
2023-05-23T11:08:35.488Z,5.70
2023-05-23T11:11:54.522Z,6.25
2023-05-23T11:14:56.730Z,5.68
2023-05-23T11:17:59.128Z,5.60
2023-05-23T11:21:01.803Z,5.50
2023-05-23T11:24:05.310Z,5.45
2023-05-23T11:27:12.642Z,5.82
2023-05-23T11:30:16.728Z,6.40
2023-05-23T11:33:19.058Z,5.75
2023-05-23T11:36:24.350Z,6.68
2023-05-23T11:39:26.526Z,6.05
2023-05-23T11:42:28.532Z,5.97
2023-05-23T11:45:34.509Z,5.72
2023-05-23T11:48:36.787Z,5.85
2023-05-23T11:51:39.103Z,5.65
2023-05-23T11:54:44.360Z,5.90
2023-05-23T11:57:46.428Z,5.90
2023-05-23T12:00:48.818Z,6.32
2023-05-23T12:03:52.463Z,6.40
2023-05-23T12:06:55.090Z,6.50
2023-05-23T12:09:57.524Z,6.28
2023-05-23T12:12:59.870Z,6.40
2023-05-23T12:16:03.212Z,6.18
2023-05-23T12:19:06.939Z,6.22
2023-05-23T12:22:09.093Z,5.82
2023-05-23T12:25:11.784Z,6.30
2023-05-23T12:28:14.453Z,6.25
2023-05-23T12:31:22.092Z,6.30
2023-05-23T12:34:24.444Z,6.00
2023-05-23T12:37:27.072Z,5.43
2023-05-23T12:40:29.364Z,5.50
2023-05-23T12:43:31.533Z,5.32
2023-05-23T12:46:33.703Z,5.30
2023-05-23T12:49:36.128Z,5.20
2023-05-23T12:52:38.386Z,5.30
2023-05-23T12:55:40.754Z,5.65
2023-05-23T12:58:43.891Z,5.63
2023-05-23T13:01:46.149Z,5.57
2023-05-23T13:04:48.392Z,5.85
2023-05-23T13:07:50.451Z,5.55
2023-05-23T13:10:54.387Z,5.85
2023-05-23T13:13:57.114Z,5.60
2023-05-23T13:16:59.437Z,5.53
2023-05-23T13:20:02.176Z,5.10
2023-05-23T13:23:04.402Z,5.32
2023-05-23T13:26:06.959Z,4.72
2023-05-23T13:29:09.085Z,5.40
2023-05-23T13:32:11.197Z,5.30
2023-05-23T13:35:13.520Z,5.32
2023-05-23T13:38:16.464Z,5.00
2023-05-23T13:41:18.621Z,4.85
2023-05-23T13:44:20.718Z,5.07
2023-05-23T13:47:23.291Z,4.70
2023-05-23T13:50:25.431Z,5.30
2023-05-23T13:53:27.742Z,4.55
2023-05-23T13:56:30.253Z,4.65
2023-05-23T13:59:32.352Z,4.50
2023-05-23T14:02:34.552Z,3.83
2023-05-23T14:05:36.804Z,4.65
2023-05-23T14:08:38.976Z,4.25
2023-05-23T14:11:41.206Z,4.88
2023-05-23T14:14:43.457Z,4.53
2023-05-23T14:17:45.710Z,4.70
2023-05-23T14:20:47.862Z,4.40
2023-05-23T14:23:50.117Z,4.50
2023-05-23T14:26:52.164Z,4.25
2023-05-23T14:29:54.330Z,3.97
2023-05-23T14:32:56.527Z,4.28
2023-05-23T14:35:59.225Z,4.28
2023-05-23T14:39:01.570Z,4.40
2023-05-23T14:42:03.875Z,5.25
2023-05-23T14:45:06.583Z,4.93
2023-05-23T14:48:10.235Z,5.30
2023-05-23T14:51:23.648Z,5.20
2023-05-23T14:54:29.278Z,5.30
2023-05-23T14:57:31.399Z,5.18
2023-05-23T15:00:33.567Z,6.65
2023-05-23T15:03:35.894Z,5.57
2023-05-23T15:06:39.567Z,5.63
2023-05-23T15:09:42.632Z,5.68
2023-05-23T15:12:44.711Z,5.47
2023-05-23T15:15:49.148Z,5.95
2023-05-23T15:18:51.281Z,6.60
2023-05-23T15:21:53.348Z,6.40
2023-05-23T15:24:55.459Z,4.72
2023-05-23T15:27:57.789Z,5.40
2023-05-23T15:30:59.904Z,7.15
2023-05-23T15:34:02.013Z,5.03
2023-05-23T15:37:04.511Z,5.35
2023-05-23T15:40:07.207Z,5.00
2023-05-23T15:43:09.330Z,5.15
2023-05-23T15:46:11.526Z,5.20
2023-05-23T15:49:21.740Z,4.88
2023-05-23T15:52:28.350Z,5.50
2023-05-23T15:55:30.933Z,5.70
2023-05-23T15:58:33.021Z,5.63
2023-05-23T16:01:35.321Z,5.53
2023-05-23T16:04:38.918Z,6.32
2023-05-23T16:07:41.074Z,5.82
2023-05-23T16:10:43.564Z,6.60
2023-05-23T16:13:45.722Z,6.50
2023-05-23T16:16:47.997Z,6.40
2023-05-23T16:19:50.085Z,6.85
2023-05-23T16:22:52.315Z,6.82
2023-05-23T16:25:54.455Z,6.70
2023-05-23T16:28:56.556Z,6.95
2023-05-23T16:31:58.700Z,7.20
2023-05-23T16:35:00.998Z,7.03
2023-05-23T16:38:03.261Z,7.45
2023-05-23T16:41:05.388Z,7.50
2023-05-23T16:44:07.659Z,7.32
2023-05-23T16:47:09.867Z,7.63
2023-05-23T16:50:12.345Z,7.97
2023-05-23T16:53:14.408Z,8.20
2023-05-23T16:56:16.530Z,8.50
2023-05-23T16:59:18.745Z,8.25
2023-05-23T17:02:20.871Z,8.13
2023-05-23T17:05:23.135Z,8.32
2023-05-23T17:08:25.258Z,7.78
2023-05-23T17:11:27.618Z,7.05
2023-05-23T17:14:29.974Z,7.18
2023-05-23T17:17:32.133Z,6.57
2023-05-23T17:20:34.223Z,6.63
2023-05-23T17:23:36.462Z,7.07
2023-05-23T17:26:38.765Z,6.07
2023-05-23T17:29:40.933Z,5.88
2023-05-23T17:32:43.490Z,5.47
2023-05-23T17:35:45.651Z,5.28
2023-05-23T17:38:47.789Z,5.20
2023-05-23T17:41:49.986Z,5.00
2023-05-23T17:44:52.345Z,4.75
2023-05-23T17:47:55.234Z,4.53
2023-05-23T17:50:57.479Z,4.63
2023-05-23T17:53:59.620Z,4.95
2023-05-23T17:57:02.070Z,5.20
2023-05-23T18:00:06.028Z,5.28
2023-05-23T18:03:08.278Z,5.80
2023-05-23T18:06:10.513Z,5.35
2023-05-23T18:09:12.686Z,5.75
2023-05-23T18:12:15.186Z,5.50
2023-05-23T18:15:17.424Z,5.78
2023-05-23T18:18:19.737Z,5.90
2023-05-23T18:21:21.945Z,5.53
2023-05-23T18:24:24.145Z,5.45
2023-05-23T18:27:26.807Z,6.00
2023-05-23T18:30:29.484Z,6.30
2023-05-23T18:33:32.181Z,6.35
2023-05-23T18:36:35.289Z,5.97
2023-05-23T18:39:37.784Z,5.93
2023-05-23T18:42:40.740Z,5.90
2023-05-23T18:45:44.301Z,5.45
2023-05-23T18:48:47.592Z,6.00
2023-05-23T18:51:53.283Z,5.75
2023-05-23T18:54:56.259Z,5.90
2023-05-23T18:57:59.422Z,5.93
2023-05-23T19:01:04.202Z,5.95
2023-05-23T19:04:07.755Z,6.18
2023-05-23T19:07:11.174Z,6.03
2023-05-23T19:10:14.321Z,6.50
2023-05-23T19:13:18.131Z,5.90
2023-05-23T19:16:22.723Z,6.00
2023-05-23T19:19:25.020Z,6.03
2023-05-23T19:22:36.150Z,6.40
2023-05-23T19:25:51.715Z,6.10
2023-05-23T19:28:54.277Z,5.60
2023-05-23T19:31:57.183Z,6.18
2023-05-23T19:34:59.426Z,5.88
2023-05-23T19:38:03.018Z,6.50
2023-05-23T19:41:05.494Z,6.30
2023-05-23T19:44:09.705Z,6.05
2023-05-23T19:47:12.230Z,6.43
2023-05-23T19:50:15.485Z,6.07
2023-05-23T19:53:17.782Z,6.07
2023-05-23T19:56:22.539Z,6.20
2023-05-23T19:59:24.778Z,5.90
2023-05-23T20:02:29.732Z,6.20
2023-05-23T20:05:32.388Z,5.85
2023-05-23T20:08:34.903Z,6.10
2023-05-23T20:11:37.532Z,5.68
2023-05-23T20:14:39.656Z,6.18
2023-05-23T20:17:41.802Z,6.28
2023-05-23T20:20:43.980Z,6.10
2023-05-23T20:23:46.507Z,6.18
2023-05-23T20:26:48.555Z,6.10
2023-05-23T20:29:51.413Z,6.07
2023-05-23T20:32:54.426Z,6.13
2023-05-23T20:35:56.890Z,6.00
2023-05-23T20:38:59.058Z,6.30
2023-05-23T20:42:01.242Z,6.35
2023-05-23T20:45:07.248Z,6.68
2023-05-23T20:48:09.420Z,6.25
2023-05-23T20:51:12.097Z,6.25
2023-05-23T20:54:14.175Z,6.32
2023-05-23T20:57:16.428Z,6.50
2023-05-23T21:00:18.912Z,6.65
2023-05-23T21:03:21.090Z,6.50
2023-05-23T21:06:23.294Z,6.50
2023-05-23T21:09:25.572Z,6.65
2023-05-23T21:12:28.308Z,7.40
2023-05-23T21:15:30.700Z,6.68
2023-05-23T21:18:32.829Z,7.05
2023-05-23T21:21:34.961Z,6.60
2023-05-23T21:24:37.491Z,6.80
2023-05-23T21:27:39.837Z,7.00
2023-05-23T21:30:42.146Z,6.57
2023-05-23T21:33:44.390Z,6.47
2023-05-23T21:36:46.494Z,6.82
2023-05-23T21:39:51.852Z,6.50
2023-05-23T21:42:54.604Z,6.88
2023-05-23T21:45:56.728Z,7.38
2023-05-23T21:48:59.298Z,7.22
2023-05-23T21:52:02.521Z,7.18
2023-05-23T21:55:04.935Z,6.57
2023-05-23T21:58:06.970Z,7.22
2023-05-23T22:01:09.031Z,6.93
2023-05-23T22:04:11.485Z,6.53
2023-05-23T22:07:13.591Z,7.93
2023-05-23T22:10:15.802Z,7.38
2023-05-23T22:13:17.848Z,7.20
2023-05-23T22:16:19.964Z,6.50
2023-05-23T22:19:26.264Z,7.07
2023-05-23T22:22:28.816Z,7.10
2023-05-23T22:25:32.795Z,7.07
2023-05-23T22:28:35.590Z,6.88
2023-05-23T22:31:37.666Z,6.93
2023-05-23T22:34:39.777Z,7.60
2023-05-23T22:37:41.843Z,7.32
2023-05-23T22:40:44.128Z,6.72
2023-05-23T22:43:47.002Z,7.88
2023-05-23T22:46:49.285Z,7.80
2023-05-23T22:49:56.545Z,7.85
2023-05-23T22:52:59.298Z,7.65
2023-05-23T22:56:01.496Z,7.53
2023-05-23T22:59:03.612Z,7.68
2023-05-23T23:02:06.559Z,7.85
2023-05-23T23:05:11.935Z,7.63
2023-05-23T23:08:14.149Z,8.20
2023-05-23T23:11:16.265Z,7.53
2023-05-23T23:14:19.259Z,7.47
2023-05-23T23:17:21.514Z,8.60
2023-05-23T23:20:23.743Z,8.45
2023-05-23T23:23:26.080Z,8.15
2023-05-23T23:26:28.200Z,7.80
2023-05-23T23:29:30.255Z,8.27
2023-05-23T23:32:34.175Z,7.93
2023-05-23T23:35:36.788Z,7.80
2023-05-23T23:38:38.922Z,8.30
2023-05-23T23:41:41.552Z,8.35
2023-05-23T23:44:43.845Z,8.63
2023-05-23T23:47:46.611Z,8.73
2023-05-23T23:50:48.757Z,7.75
2023-05-23T23:53:53.330Z,8.25
2023-05-23T23:56:55.964Z,7.50
2023-05-23T23:59:58.149Z,8.65
